Time;durP1;ratioP1;P1;durP2;ratioP2;P2;SDS_P1;SDS_P2;PMS_P1;PMS_P2;Temp;Humidity;BMP_temperature;BMP_pressure;BME280_temperature;BME280_humidity;BME280_pressure;Samples;Min_cycle;Max_cycle;Signal;HPM_P1;HPM_P2
2022/04/10 00:00:07;;;;;;;;;;;2.20;99.90;;;;;;4996915;28;19933;-86
2022/04/10 00:02:32;;;;;;;;;;;2.20;99.90;;;;;;5013253;28;19939;-86
2022/04/10 00:04:58;;;;;;;;;;;2.20;99.90;;;;;;5013061;28;20409;-86
2022/04/10 00:07:23;;;;;;;;;;;2.20;99.90;;;;;;4999776;28;19925;-86
2022/04/10 00:09:48;;;;;;;;;;;2.20;99.90;;;;;;5000542;28;20443;-86
2022/04/10 00:12:14;;;;;;;;;;;2.20;99.90;;;;;;5034654;28;20016;-86
2022/04/10 00:14:39;;;;;;;;;;;2.20;99.90;;;;;;5034202;28;19925;-85
2022/04/10 00:17:05;;;;;;;;;;;2.20;99.90;;;;;;5034425;28;20361;-86
2022/04/10 00:19:31;;;;;;;;;;;2.20;99.90;;;;;;5016623;28;19932;-86
2022/04/10 00:21:56;;;;;;;;;;;2.10;99.90;;;;;;5016887;28;19955;-86
2022/04/10 00:24:25;;;;;;;;;;;2.20;99.90;;;;;;5034592;28;19972;-86
2022/04/10 00:26:53;;;;;;;;;;;2.20;99.90;;;;;;5016858;28;19929;-85
2022/04/10 00:29:19;;;;;;;;;;;2.20;99.90;;;;;;5016343;28;19971;-86
2022/04/10 00:31:45;;;;;;;;;;;2.10;99.90;;;;;;5000065;28;20019;-86
2022/04/10 00:34:11;;;;;;;;;;;2.20;99.90;;;;;;5000192;28;20019;-86
2022/04/10 00:36:36;;;;;;;;;;;2.30;99.90;;;;;;5034193;28;19928;-86
2022/04/10 00:39:02;;;;;;;;;;;2.40;99.90;;;;;;5034373;28;19980;-85
2022/04/10 00:41:27;;;;;;;;;;;2.30;99.90;;;;;;5034136;28;19943;-86
2022/04/10 00:44:03;;;;;;;;;;;2.30;99.90;;;;;;5033724;28;19932;-86
2022/04/10 00:46:28;;;;;;;;;;;2.30;99.90;;;;;;5016259;28;19925;-86
2022/04/10 00:48:54;;;;;;;;;;;2.20;99.90;;;;;;5033895;28;20013;-86
2022/04/10 00:54:04;;;;;;;;;;;2.20;99.90;;;;;;5032596;28;20024;-86
2022/04/10 00:56:30;;;;;;;;;;;2.10;99.90;;;;;;5032019;28;20016;-85
2022/04/10 00:58:55;;;;;;;;;;;2.20;99.90;;;;;;5016045;28;20293;-86
2022/04/10 01:01:21;;;;;;;;;;;2.20;99.90;;;;;;5016033;28;20329;-85
2022/04/10 01:03:46;;;;;;;;;;;2.20;99.90;;;;;;5015861;28;19929;-86
2022/04/10 01:06:12;;;;;;;;;;;2.10;99.90;;;;;;5015772;28;20283;-86
2022/04/10 01:08:37;;;;;;;;;;;2.10;99.90;;;;;;5032416;28;19940;-86
2022/04/10 01:11:03;;;;;;;;;;;2.10;99.90;;;;;;5015680;28;19944;-86
2022/04/10 01:13:28;;;;;;;;;;;2.10;99.90;;;;;;5033418;28;19925;-86
2022/04/10 01:15:54;;;;;;;;;;;2.10;99.90;;;;;;5015634;28;19925;-86
2022/04/10 01:18:20;;;;;;;;;;;2.10;99.90;;;;;;5033404;28;19947;-85
2022/04/10 01:20:45;;;;;;;;;;;2.20;99.90;;;;;;5033456;28;19925;-86
2022/04/10 01:23:11;;;;;;;;;;;2.20;99.90;;;;;;5032212;28;19932;-86
2022/04/10 01:25:36;;;;;;;;;;;2.20;99.90;;;;;;5031487;28;19937;-86
2022/04/10 01:28:09;;;;;;;;;;;2.20;99.90;;;;;;5031975;28;19932;-86
2022/04/10 01:30:35;;;;;;;;;;;2.20;99.90;;;;;;5015415;28;19925;-86
2022/04/10 01:33:00;;;;;;;;;;;2.20;99.90;;;;;;5015188;28;19931;-86
2022/04/10 01:35:26;;;;;;;;;;;2.20;99.90;;;;;;5031909;28;19964;-86
2022/04/10 01:37:52;;;;;;;;;;;2.20;99.90;;;;;;5015241;28;19925;-86
2022/04/10 01:40:19;;;;;;;;;;;2.20;99.90;;;;;;5014860;28;19933;-86
2022/04/10 01:42:44;;;;;;;;;;;2.20;99.90;;;;;;5032009;28;19925;-86
2022/04/10 01:45:10;;;;;;;;;;;2.20;99.90;;;;;;5031384;28;19979;-86
2022/04/10 01:47:35;;;;;;;;;;;2.30;99.90;;;;;;5014964;28;19925;-86
2022/04/10 01:50:01;;;;;;;;;;;2.30;99.90;;;;;;5031414;28;19971;-86
2022/04/10 01:52:26;;;;;;;;;;;2.30;99.90;;;;;;5023216;28;19925;-86
2022/04/10 01:54:54;;;;;;;;;;;2.20;99.90;;;;;;5014876;28;19926;-86
2022/04/10 01:57:20;;;;;;;;;;;2.20;99.90;;;;;;5031186;28;19925;-86
2022/04/10 01:59:45;;;;;;;;;;;2.30;99.90;;;;;;5026111;28;19972;-86
2022/04/10 02:02:11;;;;;;;;;;;2.20;99.90;;;;;;5011857;28;20028;-86
2022/04/10 02:04:36;;;;;;;;;;;2.20;99.90;;;;;;4995179;28;19925;-86
2022/04/10 02:07:02;;;;;;;;;;;2.20;99.90;;;;;;5012788;28;19932;-85
2022/04/10 02:09:27;;;;;;;;;;;2.10;99.90;;;;;;5026778;28;19929;-86
2022/04/10 02:11:52;;;;;;;;;;;2.10;99.90;;;;;;5031317;28;19925;-86
2022/04/10 02:14:18;;;;;;;;;;;2.10;99.90;;;;;;5031048;28;20393;-85
2022/04/10 02:16:44;;;;;;;;;;;2.10;99.90;;;;;;5031150;28;20104;-86
2022/04/10 02:19:09;;;;;;;;;;;2.10;99.90;;;;;;5031651;28;19960;-86
2022/04/10 02:21:35;;;;;;;;;;;2.10;99.90;;;;;;5032706;28;20385;-86
2022/04/10 02:24:01;;;;;;;;;;;2.10;99.90;;;;;;5015126;28;19925;-86
2022/04/10 02:26:27;;;;;;;;;;;2.10;99.90;;;;;;5033240;28;19929;-86
2022/04/10 02:28:52;;;;;;;;;;;2.10;99.90;;;;;;5014524;28;19921;-86
2022/04/10 02:31:17;;;;;;;;;;;2.10;99.90;;;;;;5032314;28;19936;-86
2022/04/10 02:33:43;;;;;;;;;;;2.10;99.90;;;;;;5015860;28;20286;-86
2022/04/10 02:36:08;;;;;;;;;;;2.10;99.90;;;;;;5032442;28;19925;-86
2022/04/10 02:38:34;;;;;;;;;;;2.10;99.90;;;;;;5030932;28;19925;-86
2022/04/10 02:41:00;;;;;;;;;;;2.10;99.90;;;;;;5031065;28;19964;-86
2022/04/10 02:43:25;;;;;;;;;;;2.10;99.90;;;;;;5032281;28;20445;-86
2022/04/10 02:45:50;;;;;;;;;;;2.10;99.90;;;;;;5031233;28;19925;-85
2022/04/10 02:48:16;;;;;;;;;;;2.10;99.90;;;;;;5032072;28;20027;-85
2022/04/10 02:50:41;;;;;;;;;;;2.10;99.90;;;;;;5031662;28;20290;-86
2022/04/10 02:53:07;;;;;;;;;;;2.20;99.90;;;;;;5030604;28;19998;-86
2022/04/10 02:55:33;;;;;;;;;;;2.20;99.90;;;;;;5031947;28;20002;-85
2022/04/10 02:57:58;;;;;;;;;;;2.20;99.90;;;;;;5030514;28;19932;-86
2022/04/10 03:00:24;;;;;;;;;;;2.20;99.90;;;;;;5030889;28;19960;-86
2022/04/10 03:02:49;;;;;;;;;;;2.10;99.90;;;;;;5030430;28;20441;-86
2022/04/10 03:05:15;;;;;;;;;;;2.20;99.90;;;;;;5030574;28;19970;-85
2022/04/10 03:07:40;;;;;;;;;;;2.10;99.90;;;;;;5013617;28;19948;-86
2022/04/10 03:10:06;;;;;;;;;;;2.10;99.90;;;;;;5031849;28;19932;-85
2022/04/10 03:12:31;;;;;;;;;;;2.10;99.90;;;;;;5031753;28;20359;-86
2022/04/10 03:14:57;;;;;;;;;;;2.10;99.90;;;;;;5030525;28;19932;-86
2022/04/10 03:17:22;;;;;;;;;;;2.00;99.90;;;;;;5014624;28;19925;-86
2022/04/10 03:19:48;;;;;;;;;;;2.10;99.90;;;;;;5031987;28;20440;-86
2022/04/10 03:22:13;;;;;;;;;;;2.00;99.90;;;;;;5030386;28;19925;-86
2022/04/10 03:24:39;;;;;;;;;;;2.00;99.90;;;;;;5030724;28;19929;-86
2022/04/10 03:27:04;;;;;;;;;;;2.00;99.90;;;;;;5030389;28;20433;-86
2022/04/10 03:29:30;;;;;;;;;;;1.90;99.90;;;;;;5032035;28;19926;-86
2022/04/10 03:31:55;;;;;;;;;;;1.90;99.90;;;;;;5032025;28;19961;-85
2022/04/10 03:34:21;;;;;;;;;;;2.00;99.90;;;;;;5030394;28;19925;-86
2022/04/10 03:36:46;;;;;;;;;;;2.10;99.90;;;;;;5031068;28;20008;-86
2022/04/10 03:39:12;;;;;;;;;;;2.00;99.90;;;;;;5031740;28;19931;-86
2022/04/10 03:41:37;;;;;;;;;;;2.00;99.90;;;;;;5032138;28;19929;-86
2022/04/10 03:44:03;;;;;;;;;;;2.00;99.90;;;;;;5034650;28;20021;-86
2022/04/10 03:46:28;;;;;;;;;;;2.10;99.90;;;;;;5048741;28;20023;-85
2022/04/10 03:48:54;;;;;;;;;;;2.10;99.90;;;;;;5041214;28;19925;-86
2022/04/10 03:51:19;;;;;;;;;;;2.10;99.90;;;;;;5047934;28;19964;-86
2022/04/10 03:53:45;;;;;;;;;;;2.20;99.90;;;;;;5038465;28;19948;-86
2022/04/10 03:56:10;;;;;;;;;;;2.20;99.90;;;;;;5036806;28;20393;-86
2022/04/10 03:58:36;;;;;;;;;;;2.20;99.90;;;;;;5004189;28;20364;-86
2022/04/10 04:01:02;;;;;;;;;;;2.20;99.90;;;;;;5020639;28;20389;-85
2022/04/10 04:03:30;;;;;;;;;;;2.20;99.90;;;;;;5019254;28;19932;-85
2022/04/10 04:05:56;;;;;;;;;;;2.20;99.90;;;;;;5019068;28;20289;-84
2022/04/10 04:08:21;;;;;;;;;;;2.20;99.90;;;;;;5002472;28;19926;-86
2022/04/10 04:10:47;;;;;;;;;;;2.20;99.90;;;;;;5017554;28;20020;-85
2022/04/10 04:13:12;;;;;;;;;;;2.20;99.90;;;;;;5017269;28;19929;-85
2022/04/10 04:15:38;;;;;;;;;;;2.20;99.90;;;;;;5017164;28;19929;-86
2022/04/10 04:18:03;;;;;;;;;;;2.20;99.90;;;;;;5000754;28;19931;-85
2022/04/10 04:20:29;;;;;;;;;;;2.20;99.90;;;;;;5016659;28;19965;-85
2022/04/10 04:22:55;;;;;;;;;;;2.30;99.90;;;;;;5017389;28;20248;-85
2022/04/10 04:25:20;;;;;;;;;;;2.40;99.90;;;;;;5035213;28;20289;-85
2022/04/10 04:27:46;;;;;;;;;;;2.40;99.90;;;;;;5016942;28;20429;-85
2022/04/10 04:30:11;;;;;;;;;;;2.50;99.90;;;;;;5016611;28;19925;-85
2022/04/10 04:32:37;;;;;;;;;;;2.60;99.90;;;;;;5000202;28;19929;-85
2022/04/10 04:35:03;;;;;;;;;;;2.60;99.90;;;;;;5000062;28;19983;-85
2022/04/10 04:37:29;;;;;;;;;;;2.70;99.90;;;;;;5016647;28;20032;-85
2022/04/10 04:39:54;;;;;;;;;;;2.70;99.90;;;;;;5016956;28;20019;-85
2022/04/10 04:42:20;;;;;;;;;;;2.70;99.90;;;;;;5000231;28;19961;-85
2022/04/10 04:44:45;;;;;;;;;;;2.60;99.90;;;;;;5016410;28;19932;-85
2022/04/10 04:47:11;;;;;;;;;;;2.60;99.90;;;;;;5016690;28;19925;-84
2022/04/10 04:49:36;;;;;;;;;;;2.60;99.90;;;;;;4999729;28;20286;-84
2022/04/10 04:52:02;;;;;;;;;;;2.60;99.90;;;;;;5027256;28;19983;-85
2022/04/10 04:54:27;;;;;;;;;;;2.50;99.90;;;;;;5032883;28;20016;-84
2022/04/10 04:56:53;;;;;;;;;;;2.60;99.90;;;;;;5032688;28;20078;-84
2022/04/10 04:59:19;;;;;;;;;;;2.60;99.90;;;;;;5033037;28;19924;-84
2022/04/10 05:01:45;;;;;;;;;;;2.60;99.90;;;;;;5032954;28;19925;-84
2022/04/10 05:04:11;;;;;;;;;;;2.60;99.90;;;;;;5015824;28;19979;-84
2022/04/10 05:06:37;;;;;;;;;;;2.60;99.90;;;;;;5016506;28;19964;-85
2022/04/10 05:09:02;;;;;;;;;;;2.60;99.90;;;;;;5032639;28;19925;-84
2022/04/10 05:11:28;;;;;;;;;;;2.60;99.90;;;;;;5032715;28;19932;-84
2022/04/10 05:13:54;;;;;;;;;;;2.70;99.90;;;;;;5033121;28;19928;-84
2022/04/10 05:16:19;;;;;;;;;;;2.70;99.90;;;;;;5035399;28;19926;-83
2022/04/10 05:18:45;;;;;;;;;;;2.60;99.90;;;;;;5040816;28;19932;-85
2022/04/10 05:21:10;;;;;;;;;;;2.60;99.90;;;;;;5058079;28;19985;-84
2022/04/10 05:23:36;;;;;;;;;;;2.60;99.90;;;;;;5057497;28;19909;-84
2022/04/10 05:26:02;;;;;;;;;;;2.60;99.90;;;;;;5040777;28;20023;-85
2022/04/10 05:28:28;;;;;;;;;;;2.70;99.90;;;;;;5033742;28;19936;-85
2022/04/10 05:30:53;;;;;;;;;;;2.80;99.90;;;;;;5032513;28;19925;-84
2022/04/10 05:33:19;;;;;;;;;;;2.90;99.90;;;;;;5032911;28;19964;-83
2022/04/10 05:35:44;;;;;;;;;;;3.00;99.90;;;;;;5033699;28;19960;-85
2022/04/10 05:38:10;;;;;;;;;;;3.20;99.90;;;;;;5057575;28;19980;-85
2022/04/10 05:40:35;;;;;;;;;;;3.40;99.90;;;;;;5039692;28;20012;-85
2022/04/10 05:43:01;;;;;;;;;;;3.50;99.90;;;;;;5044081;28;19925;-84
2022/04/10 05:45:26;;;;;;;;;;;3.70;99.90;;;;;;5032754;28;20011;-84
2022/04/10 05:47:52;;;;;;;;;;;3.90;99.90;;;;;;5031587;28;19928;-84
2022/04/10 05:50:17;;;;;;;;;;;4.00;99.90;;;;;;5031741;28;19929;-83
2022/04/10 05:52:44;;;;;;;;;;;4.10;99.90;;;;;;5033339;28;19925;-84
2022/04/10 05:55:10;;;;;;;;;;;4.10;99.90;;;;;;5015561;28;20351;-84
2022/04/10 05:57:36;;;;;;;;;;;4.10;99.90;;;;;;5014997;28;19967;-84
2022/04/10 06:00:05;;;;;;;;;;;4.10;99.90;;;;;;4999139;28;19925;-84
2022/04/10 06:02:31;;;;;;;;;;;4.10;99.90;;;;;;5015493;28;19925;-84
2022/04/10 06:04:56;;;;;;;;;;;4.80;99.90;;;;;;5014558;28;19978;-84
2022/04/10 06:07:22;;;;;;;;;;;5.20;99.90;;;;;;5032823;28;19971;-84
2022/04/10 06:09:47;;;;;;;;;;;5.40;99.90;;;;;;5014911;28;20294;-84
2022/04/10 06:12:12;;;;;;;;;;;5.50;99.90;;;;;;5015440;28;19925;-84
2022/04/10 06:14:38;;;;;;;;;;;5.90;99.90;;;;;;5032812;28;19925;-84
2022/04/10 06:17:04;;;;;;;;;;;6.30;99.90;;;;;;5032240;28;19933;-84
2022/04/10 06:19:29;;;;;;;;;;;6.30;99.90;;;;;;5015555;28;20334;-84
2022/04/10 06:21:54;;;;;;;;;;;6.90;99.90;;;;;;5014482;28;19925;-84
2022/04/10 06:24:21;;;;;;;;;;;7.30;99.90;;;;;;4998140;28;19961;-84
2022/04/10 06:26:49;;;;;;;;;;;8.10;99.90;;;;;;5032504;28;19961;-84
2022/04/10 06:29:15;;;;;;;;;;;8.80;99.90;;;;;;5032497;28;19925;-85
2022/04/10 06:31:40;;;;;;;;;;;8.70;99.90;;;;;;5031912;28;20290;-84
2022/04/10 06:34:06;;;;;;;;;;;8.20;99.90;;;;;;5014694;28;19971;-84
2022/04/10 06:36:31;;;;;;;;;;;7.70;99.90;;;;;;5014369;28;19925;-84
2022/04/10 06:38:57;;;;;;;;;;;7.10;99.90;;;;;;5014368;28;20279;-84
2022/04/10 06:41:23;;;;;;;;;;;6.70;99.90;;;;;;5032231;28;19925;-84
2022/04/10 06:43:48;;;;;;;;;;;6.40;99.90;;;;;;5031969;28;19926;-84
2022/04/10 06:46:14;;;;;;;;;;;6.20;99.90;;;;;;5014019;28;19925;-84
2022/04/10 06:48:39;;;;;;;;;;;6.00;99.90;;;;;;5014110;28;19932;-84
2022/04/10 06:51:05;;;;;;;;;;;7.00;99.90;;;;;;5017812;28;19932;-84
2022/04/10 06:53:30;;;;;;;;;;;8.00;99.90;;;;;;5032049;28;19925;-84
2022/04/10 06:55:55;;;;;;;;;;;8.70;99.90;;;;;;5030658;28;19971;-84
2022/04/10 06:58:22;;;;;;;;;;;9.30;99.90;;;;;;5032037;28;19925;-84
2022/04/10 07:00:48;;;;;;;;;;;9.00;99.90;;;;;;5030281;28;20079;-84
2022/04/10 07:03:14;;;;;;;;;;;8.50;99.90;;;;;;5030603;28;20429;-84
2022/04/10 07:05:40;;;;;;;;;;;8.20;99.90;;;;;;5030744;28;19936;-84
2022/04/10 07:08:06;;;;;;;;;;;8.10;99.90;;;;;;5031782;28;20011;-84
2022/04/10 07:10:31;;;;;;;;;;;8.50;99.90;;;;;;5030643;28;19968;-84
2022/04/10 07:12:57;;;;;;;;;;;9.10;99.90;;;;;;5030749;28;20378;-84
2022/04/10 07:15:22;;;;;;;;;;;9.50;99.90;;;;;;5030051;28;20433;-84
2022/04/10 07:17:48;;;;;;;;;;;10.00;99.90;;;;;;5030242;28;19990;-84
2022/04/10 07:20:13;;;;;;;;;;;9.90;99.90;;;;;;5013745;28;19987;-84
2022/04/10 07:25:23;;;;;;;;;;;9.10;99.90;;;;;;5030622;28;19947;-84
2022/04/10 07:27:49;;;;;;;;;;;8.70;99.90;;;;;;5029881;28;20378;-84
2022/04/10 07:30:14;;;;;;;;;;;8.30;99.90;;;;;;5031513;28;19987;-84
2022/04/10 07:32:39;;;;;;;;;;;8.10;99.90;;;;;;5014090;28;19925;-85
2022/04/10 07:35:05;;;;;;;;;;;7.80;99.90;;;;;;5030175;28;20374;-85
2022/04/10 07:37:31;;;;;;;;;;;7.80;99.90;;;;;;5013957;28;19983;-84
2022/04/10 07:39:57;;;;;;;;;;;7.70;99.90;;;;;;5030324;28;19929;-84
2022/04/10 07:42:22;;;;;;;;;;;7.70;99.90;;;;;;5030061;28;19925;-84
2022/04/10 07:44:48;;;;;;;;;;;7.80;99.90;;;;;;5013640;28;20328;-84
2022/04/10 07:47:25;;;;;;;;;;;7.70;99.90;;;;;;5031284;28;19925;-84
2022/04/10 07:49:50;;;;;;;;;;;8.20;99.90;;;;;;5030194;28;19972;-84
2022/04/10 07:52:16;;;;;;;;;;;7.90;99.90;;;;;;5031188;28;20386;-85
2022/04/10 07:54:42;;;;;;;;;;;7.90;99.90;;;;;;5031324;28;19925;-84
2022/04/10 07:57:07;;;;;;;;;;;8.10;99.90;;;;;;5030976;28;19984;-84
2022/04/10 07:59:32;;;;;;;;;;;8.30;99.90;;;;;;5013872;28;19979;-85
2022/04/10 08:01:58;;;;;;;;;;;8.30;99.90;;;;;;5013460;28;19979;-85
2022/04/10 08:04:23;;;;;;;;;;;8.50;99.90;;;;;;5013478;28;19925;-84
2022/04/10 08:06:49;;;;;;;;;;;8.50;99.90;;;;;;5013671;28;19933;-84
2022/04/10 08:09:14;;;;;;;;;;;8.30;99.90;;;;;;4997158;28;20194;-84
2022/04/10 08:11:40;;;;;;;;;;;8.40;99.90;;;;;;5013020;28;19925;-84
2022/04/10 08:14:05;;;;;;;;;;;8.40;99.90;;;;;;4980923;28;20059;-84
2022/04/10 08:16:31;;;;;;;;;;;8.30;99.90;;;;;;5031193;28;20317;-84
2022/04/10 08:18:56;;;;;;;;;;;8.10;99.90;;;;;;4997321;28;19948;-84
2022/04/10 08:21:22;;;;;;;;;;;7.80;99.90;;;;;;5013458;28;19925;-85
2022/04/10 08:23:47;;;;;;;;;;;7.60;99.90;;;;;;5031409;28;20370;-84
2022/04/10 08:26:13;;;;;;;;;;;7.30;99.90;;;;;;5013109;28;19932;-85
2022/04/10 08:28:38;;;;;;;;;;;7.30;99.90;;;;;;5000025;28;19932;-84
2022/04/10 08:31:04;;;;;;;;;;;7.50;99.90;;;;;;5034495;28;20394;-85
2022/04/10 08:33:29;;;;;;;;;;;7.60;99.90;;;;;;5001041;28;19925;-84
2022/04/10 08:35:56;;;;;;;;;;;7.80;99.90;;;;;;5016906;28;20600;-84
2022/04/10 08:38:22;;;;;;;;;;;8.00;99.90;;;;;;5034579;28;19948;-84
2022/04/10 08:40:48;;;;;;;;;;;8.10;99.90;;;;;;4999900;28;20398;-85
2022/04/10 08:43:14;;;;;;;;;;;8.20;99.90;;;;;;5000295;28;19925;-85
2022/04/10 08:45:39;;;;;;;;;;;8.50;99.90;;;;;;5034281;28;19991;-84
2022/04/10 08:48:05;;;;;;;;;;;8.40;99.90;;;;;;5034291;28;19925;-84
2022/04/10 08:50:31;;;;;;;;;;;8.40;99.90;;;;;;5034580;28;20087;-84
2022/04/10 08:53:00;;;;;;;;;;;8.40;99.90;;;;;;5017331;28;20026;-85
2022/04/10 08:55:25;;;;;;;;;;;8.50;99.90;;;;;;5018067;28;19924;-85
2022/04/10 08:57:51;;;;;;;;;;;8.70;99.90;;;;;;5057803;28;19924;-84
2022/04/10 09:00:18;;;;;;;;;;;8.70;99.90;;;;;;5057938;28;19926;-85
2022/04/10 09:02:47;;;;;;;;;;;8.90;99.90;;;;;;5020218;28;19932;-84
2022/04/10 09:05:16;;;;;;;;;;;9.10;99.90;;;;;;5035285;28;19933;-85
2022/04/10 09:08:02;;;;;;;;;;;9.40;99.90;;;;;;5016678;28;19932;-84
2022/04/10 09:10:27;;;;;;;;;;;9.60;99.90;;;;;;5016586;28;19929;-85
2022/04/10 09:12:53;;;;;;;;;;;9.90;99.90;;;;;;5036724;28;20233;-85
2022/04/10 09:15:20;;;;;;;;;;;10.20;99.90;;;;;;5055521;28;19968;-84
2022/04/10 09:17:55;;;;;;;;;;;10.10;99.90;;;;;;5038540;28;19913;-86
2022/04/10 09:20:20;;;;;;;;;;;10.10;99.90;;;;;;5019318;28;20310;-84
2022/04/10 09:22:45;;;;;;;;;;;9.80;99.90;;;;;;5016866;28;19925;-85
2022/04/10 09:25:13;;;;;;;;;;;9.40;99.90;;;;;;5016326;28;19928;-85
2022/04/10 09:27:38;;;;;;;;;;;7.90;99.90;;;;;;5016084;28;19932;-84
2022/04/10 09:30:05;;;;;;;;;;;7.30;99.90;;;;;;5001831;28;19996;-84
2022/04/10 09:32:56;;;;;;;;;;;7.10;99.90;;;;;;5016199;28;19977;-85
2022/04/10 09:35:23;;;;;;;;;;;7.00;99.90;;;;;;5013607;28;20346;-85
2022/04/10 09:37:48;;;;;;;;;;;7.40;99.90;;;;;;5033542;28;19929;-84
2022/04/10 09:40:24;;;;;;;;;;;7.80;99.90;;;;;;5015353;28;20385;-85
2022/04/10 09:43:10;;;;;;;;;;;8.10;99.90;;;;;;5016027;28;19979;-84
2022/04/10 09:45:39;;;;;;;;;;;8.50;99.90;;;;;;5016885;28;19972;-85
2022/04/10 09:48:21;;;;;;;;;;;8.60;99.90;;;;;;5033406;28;19932;-85
2022/04/10 09:50:52;;;;;;;;;;;8.80;99.90;;;;;;5016434;28;19925;-84
2022/04/10 09:53:18;;;;;;;;;;;9.00;99.90;;;;;;5031573;28;19933;-84
2022/04/10 09:55:44;;;;;;;;;;;9.10;99.90;;;;;;5031850;28;19925;-85
2022/04/10 09:58:10;;;;;;;;;;;9.30;99.90;;;;;;5015511;28;19976;-85
2022/04/10 10:00:37;;;;;;;;;;;9.60;99.90;;;;;;5032087;28;19972;-84
2022/04/10 10:03:03;;;;;;;;;;;10.00;99.90;;;;;;5031768;28;20374;-85
2022/04/10 10:05:29;;;;;;;;;;;10.10;99.90;;;;;;5033031;28;20015;-85
2022/04/10 10:07:55;;;;;;;;;;;9.90;99.90;;;;;;5014964;28;20336;-85
2022/04/10 10:10:21;;;;;;;;;;;9.80;99.90;;;;;;5031650;28;19925;-85
2022/04/10 10:12:48;;;;;;;;;;;9.50;99.90;;;;;;5031619;28;19925;-85
2022/04/10 10:15:14;;;;;;;;;;;9.40;99.90;;;;;;5032764;28;19932;-85
2022/04/10 10:17:39;;;;;;;;;;;9.60;99.90;;;;;;5031138;28;20295;-85
2022/04/10 10:20:06;;;;;;;;;;;9.50;99.90;;;;;;5032748;28;19925;-84
2022/04/10 10:22:32;;;;;;;;;;;9.60;99.90;;;;;;5032704;28;19929;-84
2022/04/10 10:25:00;;;;;;;;;;;9.80;99.90;;;;;;5031615;28;19929;-84
2022/04/10 10:27:40;;;;;;;;;;;10.00;99.90;;;;;;5032621;28;20429;-85
2022/04/10 10:30:23;;;;;;;;;;;10.00;99.90;;;;;;5032666;28;19940;-85
2022/04/10 10:32:57;;;;;;;;;;;10.00;99.90;;;;;;5031055;28;19926;-84
2022/04/10 10:35:28;;;;;;;;;;;10.20;99.90;;;;;;5031363;28;19925;-85
2022/04/10 10:37:54;;;;;;;;;;;10.40;99.90;;;;;;5031728;28;20011;-85
2022/04/10 10:40:20;;;;;;;;;;;10.60;99.90;;;;;;5031014;28;19965;-85
2022/04/10 10:42:50;;;;;;;;;;;10.60;99.90;;;;;;5014577;28;20043;-85
2022/04/10 10:45:30;;;;;;;;;;;10.70;99.90;;;;;;5014537;28;19925;-85
2022/04/10 10:48:15;;;;;;;;;;;11.20;99.90;;;;;;5030910;28;20298;-85
2022/04/10 10:50:40;;;;;;;;;;;11.50;99.90;;;;;;5031258;28;20424;-85
2022/04/10 10:53:06;;;;;;;;;;;11.30;99.90;;;;;;5013989;28;19925;-85
2022/04/10 10:55:47;;;;;;;;;;;11.30;99.90;;;;;;5032133;28;19967;-85
2022/04/10 10:58:18;;;;;;;;;;;11.40;99.90;;;;;;5031977;28;19971;-85
2022/04/10 11:00:44;;;;;;;;;;;11.50;98.00;;;;;;5014154;28;20374;-85
2022/04/10 11:03:09;;;;;;;;;;;11.70;99.90;;;;;;4998101;28;20200;-85
2022/04/10 11:05:36;;;;;;;;;;;11.60;99.90;;;;;;5031402;28;20370;-85
2022/04/10 11:08:01;;;;;;;;;;;11.10;98.10;;;;;;5014069;28;19983;-85
2022/04/10 11:10:29;;;;;;;;;;;11.00;99.90;;;;;;5013974;28;19932;-85
2022/04/10 11:13:05;;;;;;;;;;;11.30;99.90;;;;;;5014025;28;19952;-84
2022/04/10 11:15:32;;;;;;;;;;;11.40;99.90;;;;;;5014194;28;19925;-85
2022/04/10 11:18:02;;;;;;;;;;;11.50;99.90;;;;;;5013910;28;20325;-85
2022/04/10 11:20:28;;;;;;;;;;;11.60;99.90;;;;;;5013745;28;19929;-85
2022/04/10 11:22:53;;;;;;;;;;;11.60;99.40;;;;;;5031577;28;19948;-85
2022/04/10 11:25:20;;;;;;;;;;;11.30;99.90;;;;;;5014400;28;20016;-85
2022/04/10 11:27:48;;;;;;;;;;;11.10;99.90;;;;;;5014296;28;19925;-85
2022/04/10 11:30:22;;;;;;;;;;;11.40;99.20;;;;;;5014442;28;19968;-85
2022/04/10 11:33:13;;;;;;;;;;;11.80;99.50;;;;;;5013651;28;20282;-84
2022/04/10 11:35:40;;;;;;;;;;;12.00;96.00;;;;;;5027993;28;20393;-85
2022/04/10 11:38:07;;;;;;;;;;;11.90;95.00;;;;;;5013863;28;19925;-85
2022/04/10 11:40:34;;;;;;;;;;;11.90;92.90;;;;;;5013919;28;19932;-85
2022/04/10 11:43:02;;;;;;;;;;;11.90;92.50;;;;;;5013977;28;19925;-85
2022/04/10 11:45:31;;;;;;;;;;;11.40;95.00;;;;;;5014044;28;19959;-85
2022/04/10 11:47:57;;;;;;;;;;;11.00;96.30;;;;;;5013683;28;19925;-85
2022/04/10 11:50:23;;;;;;;;;;;10.70;97.30;;;;;;5012956;28;19975;-84
2022/04/10 11:52:56;;;;;;;;;;;10.90;99.90;;;;;;5013610;28;19925;-85
2022/04/10 11:55:27;;;;;;;;;;;11.00;98.70;;;;;;4998502;28;19926;-85
2022/04/10 11:57:52;;;;;;;;;;;11.20;96.00;;;;;;5013751;28;20015;-85
2022/04/10 12:00:18;;;;;;;;;;;11.50;97.90;;;;;;4997115;28;20007;-85
2022/04/10 12:02:43;;;;;;;;;;;11.60;96.10;;;;;;5015201;28;19971;-85
2022/04/10 12:05:09;;;;;;;;;;;12.00;99.70;;;;;;5000564;28;19970;-85
2022/04/10 12:07:36;;;;;;;;;;;11.80;96.80;;;;;;5017433;28;19925;-85
2022/04/10 12:10:02;;;;;;;;;;;11.60;95.20;;;;;;5017040;28;19978;-85
2022/04/10 12:12:36;;;;;;;;;;;11.50;97.10;;;;;;5035311;28;20019;-85
2022/04/10 12:15:02;;;;;;;;;;;11.20;90.80;;;;;;5017279;28;19933;-85
2022/04/10 12:17:27;;;;;;;;;;;10.90;92.90;;;;;;5017079;28;20449;-85
2022/04/10 12:19:53;;;;;;;;;;;11.20;98.10;;;;;;5016766;28;20026;-84
2022/04/10 12:22:20;;;;;;;;;;;11.20;93.50;;;;;;5001335;28;20305;-84
2022/04/10 12:24:45;;;;;;;;;;;11.60;98.10;;;;;;5016906;28;19925;-85
2022/04/10 12:27:11;;;;;;;;;;;11.90;94.00;;;;;;5035022;28;19925;-85
2022/04/10 12:29:37;;;;;;;;;;;12.20;96.90;;;;;;5035167;28;19932;-84
2022/04/10 12:32:03;;;;;;;;;;;12.30;93.20;;;;;;5035203;28;19932;-85
2022/04/10 12:34:38;;;;;;;;;;;12.30;85.90;;;;;;5018651;28;20008;-85
2022/04/10 12:37:08;;;;;;;;;;;12.10;84.20;;;;;;5053029;28;20008;-85
2022/04/10 12:39:34;;;;;;;;;;;11.90;79.90;;;;;;5040742;28;19956;-85
2022/04/10 12:42:03;;;;;;;;;;;11.70;84.40;;;;;;5051620;28;19932;-85
2022/04/10 12:44:29;;;;;;;;;;;11.50;85.30;;;;;;5018279;28;19968;-85
2022/04/10 12:46:55;;;;;;;;;;;11.40;87.80;;;;;;5034431;28;20386;-85
2022/04/10 12:49:20;;;;;;;;;;;11.10;88.60;;;;;;5017141;28;19925;-84
2022/04/10 12:51:56;;;;;;;;;;;10.90;91.20;;;;;;5027189;28;20294;-85
2022/04/10 12:54:41;;;;;;;;;;;10.80;92.70;;;;;;5049016;28;19921;-85
2022/04/10 12:57:08;;;;;;;;;;;10.60;94.70;;;;;;5057814;28;19925;-84
2022/04/10 12:59:45;;;;;;;;;;;11.00;99.70;;;;;;5049935;28;20020;-85
2022/04/10 13:02:27;;;;;;;;;;;11.40;97.00;;;;;;5032658;28;20386;-85
2022/04/10 13:05:00;;;;;;;;;;;11.90;94.40;;;;;;5033132;28;19931;-85
2022/04/10 13:07:26;;;;;;;;;;;12.20;94.60;;;;;;5033003;28;19925;-85
2022/04/10 13:10:01;;;;;;;;;;;12.30;91.70;;;;;;5032735;28;20279;-85
2022/04/10 13:12:30;;;;;;;;;;;12.20;86.90;;;;;;5034138;28;20298;-84
2022/04/10 13:14:56;;;;;;;;;;;12.40;88.30;;;;;;5017409;28;19956;-85
2022/04/10 13:17:29;;;;;;;;;;;12.70;86.00;;;;;;5032170;28;19968;-84
2022/04/10 13:20:00;;;;;;;;;;;12.50;85.50;;;;;;5016129;28;20297;-84
2022/04/10 13:22:25;;;;;;;;;;;12.30;98.00;;;;;;5033876;28;19925;-84
2022/04/10 13:24:51;;;;;;;;;;;12.40;97.40;;;;;;5032682;28;19979;-85
2022/04/10 13:27:17;;;;;;;;;;;12.20;92.50;;;;;;5033594;28;19931;-84
2022/04/10 13:29:42;;;;;;;;;;;12.30;91.90;;;;;;5033663;28;19925;-85
2022/04/10 13:32:08;;;;;;;;;;;12.60;93.00;;;;;;5032899;28;19932;-84
2022/04/10 13:34:35;;;;;;;;;;;12.80;92.20;;;;;;5015708;28;19921;-84
2022/04/10 13:37:00;;;;;;;;;;;12.80;91.80;;;;;;5021391;28;20023;-85
2022/04/10 13:39:25;;;;;;;;;;;12.80;83.70;;;;;;5033394;28;20013;-84
2022/04/10 13:41:51;;;;;;;;;;;12.50;92.40;;;;;;5015424;28;19932;-85
2022/04/10 13:44:17;;;;;;;;;;;12.50;91.10;;;;;;5032164;28;19984;-85
2022/04/10 13:46:42;;;;;;;;;;;12.60;90.40;;;;;;5031897;28;19929;-84
2022/04/10 13:49:08;;;;;;;;;;;12.70;87.90;;;;;;5015649;28;20448;-84
2022/04/10 13:51:33;;;;;;;;;;;12.20;79.80;;;;;;5031722;28;19925;-84
2022/04/10 13:54:01;;;;;;;;;;;12.40;84.20;;;;;;5031769;28;19925;-84
2022/04/10 13:56:26;;;;;;;;;;;12.50;82.80;;;;;;5031782;28;20424;-84
2022/04/10 13:58:51;;;;;;;;;;;12.80;89.00;;;;;;5032249;28;19925;-84
2022/04/10 14:01:17;;;;;;;;;;;12.50;84.10;;;;;;5032002;28;20410;-84
2022/04/10 14:03:42;;;;;;;;;;;12.50;82.20;;;;;;5031482;28;19925;-85
2022/04/10 14:06:08;;;;;;;;;;;12.50;79.40;;;;;;5031776;28;19929;-84
2022/04/10 14:08:34;;;;;;;;;;;12.70;86.20;;;;;;5031749;28;20382;-85
2022/04/10 14:11:00;;;;;;;;;;;12.70;81.60;;;;;;5032888;28;19965;-84
2022/04/10 14:13:25;;;;;;;;;;;12.70;87.80;;;;;;5032150;28;20285;-85
2022/04/10 14:15:51;;;;;;;;;;;12.40;90.70;;;;;;5037398;28;19920;-84
2022/04/10 14:18:18;;;;;;;;;;;12.50;87.80;;;;;;5049044;28;20382;-84
2022/04/10 14:20:43;;;;;;;;;;;12.40;88.10;;;;;;5054833;28;19968;-85
2022/04/10 14:23:09;;;;;;;;;;;12.70;84.60;;;;;;5044552;28;19925;-84
2022/04/10 14:25:34;;;;;;;;;;;12.80;87.70;;;;;;5032523;28;20335;-85
2022/04/10 14:27:59;;;;;;;;;;;12.90;88.50;;;;;;5016416;28;19925;-85